Salt Lake City, Utah
Traffic Map
Current Weather Conditions
Salt Lake City, Utah
Few Clouds
Few Clouds
79°
Feels Like: 79°
Wind Chill: 79° Ceiling: Unl
Heat Index: 79° Visibility: 10mi
Dew Point: 33° Wind: 0mph
Humidity: 19% Direction: ° ()
Pressure: 30.08in Gusts: 0mph
Raw Report DataKSLC 311753Z 00000KT 10SM FEW080 FEW120 26/01 A3008 RMK AO2 SLP132 T02610006 10261 20167 58001
Traffic Incident Summary
Active as of:
Severity:
Category:
InformationThere was an issue retrieving the traffic information for this location. Please try a different location or try again shortly.
Advertisements
Track Severe Weather on mobile